Time;durP1;ratioP1;P1;durP2;ratioP2;P2;SDS_P1;SDS_P2;PMS_P1;PMS_P2;Temp;Humidity;BMP_temperature;BMP_pressure;BME280_temperature;BME280_humidity;BME280_pressure;Samples;Min_cycle;Max_cycle;Signal;HPM_P1;HPM_P2
2022/06/14 00:00:56;;;;;;;;;;;20.80;66.40;20.70;99829.00;;;;344061;28;90626;-86
2022/06/14 00:01:08;;;;;;;;;;;20.80;66.40;20.80;99824.00;;;;345902;28;83665;-86
2022/06/14 00:01:20;;;;;;;;;;;20.80;66.40;20.80;99825.00;;;;345629;28;88430;-86
2022/06/14 00:01:32;;;;;;;;;;;20.80;66.50;20.90;99823.00;;;;344500;28;83681;-86
2022/06/14 00:01:44;;;;;;;;;;;20.80;66.50;20.80;99812.00;;;;345210;28;92208;-86
2022/06/14 00:01:56;;;;;;;;;;;20.80;66.60;20.90;99826.00;;;;347352;27;82304;-86
2022/06/14 00:02:08;;;;;;;;;;;20.80;66.60;20.90;99821.00;;;;345547;28;92528;-86
2022/06/14 00:02:21;;;;;;;;;;;20.80;66.60;20.90;99822.00;;;;348835;27;83376;-86
2022/06/14 00:02:32;;;;;;;;;;;20.80;66.60;20.90;99826.00;;;;346981;28;91932;-87
2022/06/14 00:02:45;;;;;;;;;;;20.80;66.70;20.80;99824.00;;;;347356;27;83419;-86
2022/06/14 00:02:57;;;;;;;;;;;20.70;66.50;20.80;99824.00;;;;348306;27;92706;-86
2022/06/14 00:03:09;;;;;;;;;;;20.80;66.40;20.80;99823.00;;;;347412;28;83302;-86
2022/06/14 00:03:36;;;;;;;;;;;20.80;66.60;20.90;99826.00;;;;346455;28;89907;-87
2022/06/14 00:03:48;;;;;;;;;;;20.80;66.60;20.80;99826.00;;;;346059;28;82396;-86
2022/06/14 00:04:00;;;;;;;;;;;20.80;66.50;20.80;99827.00;;;;346753;27;93420;-87
2022/06/14 00:04:12;;;;;;;;;;;20.80;66.40;20.80;99823.00;;;;347441;28;83382;-86
2022/06/14 00:04:24;;;;;;;;;;;20.80;66.30;20.80;99826.00;;;;347033;27;89359;-86
2022/06/14 00:04:36;;;;;;;;;;;20.80;66.50;20.90;99822.00;;;;347418;28;83352;-86
2022/06/14 00:04:47;;;;;;;;;;;20.80;66.60;20.80;99829.00;;;;346909;28;92306;-87
2022/06/14 00:04:59;;;;;;;;;;;20.70;66.60;20.80;99818.00;;;;347486;28;82440;-86
2022/06/14 00:05:11;;;;;;;;;;;20.80;66.40;20.80;99812.00;;;;348407;27;89352;-86
2022/06/14 00:05:22;;;;;;;;;;;20.70;66.60;20.80;99823.00;;;;345831;28;83460;-86
2022/06/14 00:05:34;;;;;;;;;;;20.70;66.50;20.80;99826.00;;;;346922;28;87821;-87
2022/06/14 00:05:46;;;;;;;;;;;20.70;66.60;20.80;99822.00;;;;346020;28;83224;-86
2022/06/14 00:06:01;;;;;;;;;;;20.70;66.40;20.80;99829.00;;;;346814;28;89990;-86
2022/06/14 00:06:21;;;;;;;;;;;20.70;66.40;20.80;99822.00;;;;347492;28;82410;-87
2022/06/14 00:06:33;;;;;;;;;;;20.70;66.40;20.80;99820.00;;;;345384;28;87641;-86
2022/06/14 00:06:46;;;;;;;;;;;20.70;66.50;20.70;99827.00;;;;345989;28;82648;-86
2022/06/14 00:06:57;;;;;;;;;;;20.70;66.40;20.80;99821.00;;;;343201;28;91037;-87
2022/06/14 00:07:09;;;;;;;;;;;20.70;66.60;20.80;99820.00;;;;347460;28;82405;-86
2022/06/14 00:07:21;;;;;;;;;;;20.70;66.50;20.80;99822.00;;;;346959;28;91454;-86
2022/06/14 00:07:33;;;;;;;;;;;20.70;66.50;20.90;99822.00;;;;347153;27;83497;-86
2022/06/14 00:07:44;;;;;;;;;;;20.70;66.50;20.90;99817.00;;;;346849;28;90617;-86
2022/06/14 00:07:56;;;;;;;;;;;20.70;66.70;20.90;99826.00;;;;345910;28;83429;-86
2022/06/14 00:08:08;;;;;;;;;;;20.70;66.70;20.90;99809.00;;;;344069;28;91165;-86
2022/06/14 00:08:21;;;;;;;;;;;20.70;66.70;20.80;99825.00;;;;344589;28;83450;-86
2022/06/14 00:08:33;;;;;;;;;;;20.70;66.70;20.90;99821.00;;;;345700;28;88792;-86
2022/06/14 00:08:45;;;;;;;;;;;20.70;66.70;20.90;99820.00;;;;347424;27;83503;-86
2022/06/14 00:08:57;;;;;;;;;;;20.70;66.70;20.80;99821.00;;;;349855;27;89116;-86
2022/06/14 00:09:08;;;;;;;;;;;20.70;66.70;20.90;99821.00;;;;348742;27;83326;-86
2022/06/14 00:09:20;;;;;;;;;;;20.70;66.80;20.80;99813.00;;;;346973;28;88691;-86
2022/06/14 00:09:32;;;;;;;;;;;20.70;66.90;20.80;99828.00;;;;347056;28;83476;-86
2022/06/14 00:09:44;;;;;;;;;;;20.70;66.60;20.70;99821.00;;;;346794;28;90665;-86
2022/06/14 00:09:56;;;;;;;;;;;20.70;66.50;20.80;99819.00;;;;346002;28;83375;-86
2022/06/14 00:10:08;;;;;;;;;;;20.70;66.70;20.80;99824.00;;;;346830;28;93503;-86
2022/06/14 00:10:19;;;;;;;;;;;20.70;66.60;20.70;99823.00;;;;345904;28;83168;-86
2022/06/14 00:10:31;;;;;;;;;;;20.70;66.40;20.80;99824.00;;;;345252;28;90573;-86
2022/06/14 00:10:43;;;;;;;;;;;20.70;66.60;20.90;99822.00;;;;344629;28;83455;-86
2022/06/14 00:10:56;;;;;;;;;;;20.70;66.80;20.80;99818.00;;;;348378;27;90504;-86
2022/06/14 00:11:19;;;;;;;;;;;20.70;66.70;20.80;99823.00;;;;346181;28;83266;-86
2022/06/14 00:11:33;;;;;;;;;;;20.70;66.80;20.80;99811.00;;;;347061;28;88757;-86
2022/06/14 00:11:46;;;;;;;;;;;20.70;66.60;20.80;99820.00;;;;347477;28;83177;-86
2022/06/14 00:12:00;;;;;;;;;;;20.70;66.70;20.80;99813.00;;;;344205;28;89234;-86
2022/06/14 00:12:13;;;;;;;;;;;20.70;66.70;20.80;99826.00;;;;344566;28;83293;-86
2022/06/14 00:12:24;;;;;;;;;;;20.70;67.00;20.80;99825.00;;;;343887;28;89220;-86
2022/06/14 00:12:36;;;;;;;;;;;20.70;66.90;20.80;99818.00;;;;345799;28;83360;-87
2022/06/14 00:12:48;;;;;;;;;;;20.70;66.70;20.80;99827.00;;;;345515;28;92272;-87
2022/06/14 00:13:00;;;;;;;;;;;20.70;67.00;20.80;99813.00;;;;345856;28;83470;-86
2022/06/14 00:13:11;;;;;;;;;;;20.70;67.00;20.80;99817.00;;;;345733;28;88694;-86
2022/06/14 00:13:23;;;;;;;;;;;20.70;66.80;20.80;99813.00;;;;345578;28;82497;-87
2022/06/14 00:13:35;;;;;;;;;;;20.70;66.90;20.70;99824.00;;;;348473;27;88856;-87
2022/06/14 00:13:47;;;;;;;;;;;20.70;66.80;20.80;99819.00;;;;344626;28;83292;-87
2022/06/14 00:13:59;;;;;;;;;;;20.70;66.80;20.80;99818.00;;;;345600;28;89091;-86
2022/06/14 00:14:11;;;;;;;;;;;20.70;66.80;20.80;99820.00;;;;348810;27;82835;-86
2022/06/14 00:14:23;;;;;;;;;;;20.70;66.70;20.80;99824.00;;;;345485;28;91977;-86
2022/06/14 00:14:34;;;;;;;;;;;20.70;66.70;20.70;99820.00;;;;347393;28;82306;-86
2022/06/14 00:14:46;;;;;;;;;;;20.70;66.80;20.80;99823.00;;;;346905;28;91692;-86
2022/06/14 00:14:58;;;;;;;;;;;20.70;66.80;20.80;99813.00;;;;344675;28;83472;-86
2022/06/14 00:15:10;;;;;;;;;;;20.70;66.80;20.80;99810.00;;;;348339;27;89495;-86
2022/06/14 00:15:21;;;;;;;;;;;20.70;67.00;20.80;99818.00;;;;347189;28;83162;-86
2022/06/14 00:15:33;;;;;;;;;;;20.70;67.00;20.80;99825.00;;;;345430;28;89149;-86
2022/06/14 00:15:45;;;;;;;;;;;20.70;66.90;20.80;99822.00;;;;347205;28;83549;-86
2022/06/14 00:15:57;;;;;;;;;;;20.70;66.90;20.80;99823.00;;;;345417;28;91959;-87
2022/06/14 00:16:09;;;;;;;;;;;20.70;67.00;20.80;99818.00;;;;345915;28;82214;-86
2022/06/14 00:16:21;;;;;;;;;;;20.70;66.80;20.80;99812.00;;;;343662;28;94539;-86
2022/06/14 00:16:33;;;;;;;;;;;20.70;66.70;20.80;99823.00;;;;348619;27;83441;-87
2022/06/14 00:16:45;;;;;;;;;;;20.70;66.60;20.80;99821.00;;;;346940;27;89334;-86
2022/06/14 00:16:57;;;;;;;;;;;20.70;66.60;20.70;99820.00;;;;346085;28;83557;-87
2022/06/14 00:17:09;;;;;;;;;;;20.70;66.70;20.70;99817.00;;;;345621;28;88053;-87
2022/06/14 00:17:21;;;;;;;;;;;20.70;66.70;20.70;99822.00;;;;350240;27;83428;-87
2022/06/14 00:17:32;;;;;;;;;;;20.70;66.60;20.80;99821.00;;;;345628;28;87733;-87
2022/06/14 00:17:45;;;;;;;;;;;20.70;66.70;20.70;99818.00;;;;347412;28;83166;-86
2022/06/14 00:17:56;;;;;;;;;;;20.70;66.80;20.70;99831.00;;;;346890;28;90982;-87
2022/06/14 00:18:09;;;;;;;;;;;20.70;66.70;20.60;99821.00;;;;347290;28;83476;-86
2022/06/14 00:18:21;;;;;;;;;;;20.70;66.70;20.60;99820.00;;;;345358;28;93640;-86
2022/06/14 00:18:32;;;;;;;;;;;20.60;66.70;20.60;99820.00;;;;346638;28;83312;-86
2022/06/14 00:18:44;;;;;;;;;;;20.60;66.70;20.60;99817.00;;;;345303;28;92091;-86
2022/06/14 00:18:56;;;;;;;;;;;20.70;67.00;20.70;99823.00;;;;348082;27;83347;-86
2022/06/14 00:19:08;;;;;;;;;;;20.60;67.20;20.70;99824.00;;;;345621;28;88738;-86
2022/06/14 00:19:19;;;;;;;;;;;20.60;67.00;20.70;99820.00;;;;347403;28;83190;-86
2022/06/14 00:19:31;;;;;;;;;;;20.60;67.00;20.70;99824.00;;;;346610;28;88613;-86
2022/06/14 00:19:43;;;;;;;;;;;20.60;67.00;20.70;99823.00;;;;346009;28;83229;-87
2022/06/14 00:19:55;;;;;;;;;;;20.60;67.00;20.70;99818.00;;;;345622;28;88003;-87
2022/06/14 00:20:07;;;;;;;;;;;20.60;67.00;20.60;99819.00;;;;345845;28;83389;-86
2022/06/14 00:20:19;;;;;;;;;;;20.60;66.90;20.60;99819.00;;;;345664;28;89714;-87
2022/06/14 00:20:31;;;;;;;;;;;20.60;67.10;20.70;99826.00;;;;346036;28;83354;-86
2022/06/14 00:20:43;;;;;;;;;;;20.60;67.10;20.70;99826.00;;;;347996;27;89355;-86
2022/06/14 00:20:55;;;;;;;;;;;20.60;66.90;20.70;99829.00;;;;348915;27;82165;-86
2022/06/14 00:21:07;;;;;;;;;;;20.60;67.10;20.70;99825.00;;;;345595;28;88813;-86
2022/06/14 00:21:18;;;;;;;;;;;20.60;67.10;20.70;99825.00;;;;346002;28;83228;-86
2022/06/14 00:21:30;;;;;;;;;;;20.60;67.10;20.70;99824.00;;;;346416;28;92086;-86
2022/06/14 00:21:42;;;;;;;;;;;20.60;67.00;20.70;99819.00;;;;348593;27;83478;-86
2022/06/14 00:21:56;;;;;;;;;;;20.60;67.00;20.70;99813.00;;;;348114;27;87725;-86
2022/06/14 00:22:08;;;;;;;;;;;20.60;67.00;20.70;99826.00;;;;348591;27;83313;-87
2022/06/14 00:22:21;;;;;;;;;;;20.60;66.90;20.70;99826.00;;;;346885;28;92051;-86
2022/06/14 00:22:33;;;;;;;;;;;20.60;67.00;20.70;99828.00;;;;348766;27;83468;-87
2022/06/14 00:22:45;;;;;;;;;;;20.60;67.10;20.70;99822.00;;;;346846;28;90479;-86
2022/06/14 00:22:57;;;;;;;;;;;20.60;67.10;20.70;99823.00;;;;347528;28;83174;-86
2022/06/14 00:23:09;;;;;;;;;;;20.60;67.10;20.80;99810.00;;;;349810;27;88913;-87
2022/06/14 00:23:22;;;;;;;;;;;20.60;67.20;20.70;99822.00;;;;347393;28;83256;-86
2022/06/14 00:23:34;;;;;;;;;;;20.60;68.00;20.70;99822.00;;;;347058;28;87945;-86
2022/06/14 00:23:46;;;;;;;;;;;20.60;67.00;20.70;99819.00;;;;348843;27;83333;-86
2022/06/14 00:23:59;;;;;;;;;;;20.60;67.00;20.80;99810.00;;;;347025;28;90336;-87
2022/06/14 00:24:13;;;;;;;;;;;20.60;67.00;20.70;99820.00;;;;347076;28;83422;-87
2022/06/14 00:24:26;;;;;;;;;;;20.60;67.10;20.80;99821.00;;;;347988;27;92239;-86
2022/06/14 00:24:38;;;;;;;;;;;20.60;67.10;20.80;99824.00;;;;344751;28;83269;-86
2022/06/14 00:24:49;;;;;;;;;;;20.60;67.00;20.70;99820.00;;;;346970;28;89118;-86
2022/06/14 00:25:01;;;;;;;;;;;20.60;67.10;20.70;99818.00;;;;346013;28;83514;-86
2022/06/14 00:25:29;;;;;;;;;;;20.70;67.40;20.70;99825.00;;;;345551;28;91301;-87
2022/06/14 00:25:42;;;;;;;;;;;20.60;67.20;20.70;99825.00;;;;346136;28;83235;-86
2022/06/14 00:25:55;;;;;;;;;;;20.60;67.10;20.70;99823.00;;;;346980;28;91609;-86
2022/06/14 00:26:08;;;;;;;;;;;20.60;67.10;20.70;99825.00;;;;348772;27;83350;-87
2022/06/14 00:26:20;;;;;;;;;;;20.60;67.10;20.70;99812.00;;;;348229;27;88777;-86
2022/06/14 00:26:32;;;;;;;;;;;20.60;67.10;20.70;99825.00;;;;348662;27;82555;-87
2022/06/14 00:26:43;;;;;;;;;;;20.60;67.20;20.70;99829.00;;;;346824;27;92407;-86
2022/06/14 00:26:55;;;;;;;;;;;20.60;67.10;20.70;99826.00;;;;347442;28;82337;-86
2022/06/14 00:27:07;;;;;;;;;;;20.60;67.20;20.70;99822.00;;;;346966;28;92270;-86
2022/06/14 00:27:18;;;;;;;;;;;20.60;67.20;20.70;99810.00;;;;350210;27;83352;-86
2022/06/14 00:27:30;;;;;;;;;;;20.60;67.10;20.60;99824.00;;;;347719;27;89409;-87
2022/06/14 00:27:42;;;;;;;;;;;20.60;67.30;20.60;99818.00;;;;347409;28;83485;-87
2022/06/14 00:27:54;;;;;;;;;;;20.60;67.50;20.60;99821.00;;;;348381;27;89182;-86
2022/06/14 00:28:09;;;;;;;;;;;20.60;67.40;20.50;99826.00;;;;344613;28;82973;-86
2022/06/14 00:28:21;;;;;;;;;;;20.60;67.10;20.50;99817.00;;;;345666;28;89066;-86
2022/06/14 00:28:33;;;;;;;;;;;20.60;67.00;20.50;99810.00;;;;345949;28;83355;-87
2022/06/14 00:28:45;;;;;;;;;;;20.60;67.20;20.50;99813.00;;;;348215;27;91795;-86
2022/06/14 00:28:57;;;;;;;;;;;20.60;67.30;20.60;99813.00;;;;347476;28;83155;-86
2022/06/14 00:29:09;;;;;;;;;;;20.60;67.30;20.60;99813.00;;;;345696;28;88759;-86
2022/06/14 00:29:20;;;;;;;;;;;20.50;67.40;20.60;99818.00;;;;345646;28;83347;-87
2022/06/14 00:29:36;;;;;;;;;;;20.50;67.40;20.60;99819.00;;;;345586;28;91336;-86
2022/06/14 00:29:48;;;;;;;;;;;20.50;67.30;20.60;99818.00;;;;347407;28;82409;-86
2022/06/14 00:29:59;;;;;;;;;;;20.50;67.30;20.60;99812.00;;;;347038;28;89231;-87
2022/06/14 00:30:11;;;;;;;;;;;20.50;67.30;20.60;99810.00;;;;347269;28;83479;-86
2022/06/14 00:30:23;;;;;;;;;;;20.50;67.30;20.70;99822.00;;;;348011;27;92031;-86
2022/06/14 00:30:36;;;;;;;;;;;20.50;67.30;20.60;99811.00;;;;349672;27;83569;-86
2022/06/14 00:30:49;;;;;;;;;;;20.50;67.30;20.60;99811.00;;;;345393;28;92859;-87
2022/06/14 00:31:04;;;;;;;;;;;20.50;67.30;20.50;99809.00;;;;347227;28;83575;-86
2022/06/14 00:31:18;;;;;;;;;;;20.50;67.30;20.60;99807.00;;;;346879;28;91262;-87
2022/06/14 00:31:30;;;;;;;;;;;20.50;67.40;20.60;99808.00;;;;346772;28;83525;-86
2022/06/14 00:31:42;;;;;;;;;;;20.50;67.40;20.60;99809.00;;;;348383;27;88735;-86
2022/06/14 00:31:54;;;;;;;;;;;20.50;67.40;20.60;99812.00;;;;346144;28;83287;-86
2022/06/14 00:32:06;;;;;;;;;;;20.50;67.30;20.60;99813.00;;;;348325;27;91469;-86
2022/06/14 00:32:18;;;;;;;;;;;20.50;67.40;20.60;99821.00;;;;347341;28;83550;-86
2022/06/14 00:32:30;;;;;;;;;;;20.50;67.40;20.50;99809.00;;;;345556;28;92371;-87
2022/06/14 00:32:42;;;;;;;;;;;20.50;67.60;20.50;99807.00;;;;348629;27;83461;-86
2022/06/14 00:32:54;;;;;;;;;;;20.50;67.60;20.60;99803.00;;;;347959;27;91550;-86
2022/06/14 00:33:06;;;;;;;;;;;20.50;67.70;20.50;99817.00;;;;348844;27;83344;-87
2022/06/14 00:33:18;;;;;;;;;;;20.50;67.40;20.60;99810.00;;;;348383;27;89074;-87
2022/06/14 00:33:30;;;;;;;;;;;20.50;67.40;20.60;99803.00;;;;346941;28;82727;-87
2022/06/14 00:33:41;;;;;;;;;;;20.50;67.50;20.60;99817.00;;;;346808;28;92127;-86
2022/06/14 00:33:53;;;;;;;;;;;20.50;67.80;20.60;99797.00;;;;347223;28;83444;-86
2022/06/14 00:34:05;;;;;;;;;;;20.50;67.80;20.60;99808.00;;;;346967;28;91992;-86
2022/06/14 00:34:17;;;;;;;;;;;20.50;67.90;20.60;99808.00;;;;348814;27;83575;-86
2022/06/14 00:34:29;;;;;;;;;;;20.50;67.80;20.50;99807.00;;;;348216;27;92428;-86
2022/06/14 00:34:40;;;;;;;;;;;20.40;67.60;20.50;99807.00;;;;347359;28;82306;-86
2022/06/14 00:34:55;;;;;;;;;;;20.40;67.60;20.50;99811.00;;;;344065;28;92975;-86
2022/06/14 00:35:07;;;;;;;;;;;20.40;67.90;20.50;99808.00;;;;345963;28;83322;-87
2022/06/14 00:35:19;;;;;;;;;;;20.40;67.70;20.50;99811.00;;;;344252;28;88599;-86
2022/06/14 00:35:31;;;;;;;;;;;20.40;67.50;20.50;99809.00;;;;347371;28;83294;-86
2022/06/14 00:35:43;;;;;;;;;;;20.40;67.50;20.50;99804.00;;;;347059;28;88329;-86
2022/06/14 00:36:25;;;;;;;;;;;20.40;67.70;20.60;99810.00;;;;347307;28;83202;-86
2022/06/14 00:36:37;;;;;;;;;;;20.40;67.90;20.50;99807.00;;;;342385;28;92038;-86
2022/06/14 00:36:55;;;;;;;;;;;20.40;67.50;20.50;99809.00;;;;344441;28;83447;-86
2022/06/14 00:37:10;;;;;;;;;;;20.40;67.60;20.60;99808.00;;;;341363;28;92385;-86
2022/06/14 00:37:22;;;;;;;;;;;20.40;67.70;20.60;99796.00;;;;341697;28;83585;-86
2022/06/14 00:37:33;;;;;;;;;;;20.40;67.70;20.50;99803.00;;;;342595;28;92858;-86
2022/06/14 00:37:45;;;;;;;;;;;20.40;67.60;20.50;99807.00;;;;340375;28;83836;-87
2022/06/14 00:37:57;;;;;;;;;;;20.40;67.50;20.50;99806.00;;;;341379;28;91437;-86
2022/06/14 00:38:10;;;;;;;;;;;20.40;67.50;20.50;99810.00;;;;343092;28;83476;-86
2022/06/14 00:38:22;;;;;;;;;;;20.40;67.80;20.50;99793.00;;;;342777;28;89490;-86
2022/06/14 00:38:34;;;;;;;;;;;20.40;67.80;20.50;99801.00;;;;341953;28;83078;-86
2022/06/14 00:38:46;;;;;;;;;;;20.40;67.70;20.50;99802.00;;;;342664;28;92669;-86
2022/06/14 00:39:00;;;;;;;;;;;20.40;67.80;20.50;99805.00;;;;343080;28;83292;-88
2022/06/14 00:39:11;;;;;;;;;;;20.40;67.90;20.50;99794.00;;;;341460;28;91680;-88
2022/06/14 00:39:23;;;;;;;;;;;20.40;67.80;20.60;99800.00;;;;339117;28;83393;-88
2022/06/14 00:39:35;;;;;;;;;;;20.40;67.80;20.50;99797.00;;;;344063;28;91430;-88
2022/06/14 00:39:47;;;;;;;;;;;20.40;67.90;20.50;99804.00;;;;343177;28;83371;-88
2022/06/14 00:39:58;;;;;;;;;;;20.40;68.00;20.50;99798.00;;;;340945;28;89945;-88
2022/06/14 00:40:11;;;;;;;;;;;20.40;67.80;20.50;99797.00;;;;341796;28;83299;-88
2022/06/14 00:40:26;;;;;;;;;;;20.40;67.80;20.50;99797.00;;;;341494;28;89883;-88
2022/06/14 00:40:38;;;;;;;;;;;20.40;67.70;20.40;99804.00;;;;344615;28;83423;-88
2022/06/14 00:40:54;;;;;;;;;;;20.40;67.80;20.50;99805.00;;;;344153;28;91426;-88
2022/06/14 00:41:06;;;;;;;;;;;20.40;67.80;20.50;99790.00;;;;344385;28;83377;-88
2022/06/14 00:41:24;;;;;;;;;;;20.40;67.80;20.40;99803.00;;;;345134;28;91684;-88
2022/06/14 00:41:40;;;;;;;;;;;20.40;67.70;20.50;99799.00;;;;344697;28;82506;-87
2022/06/14 00:41:54;;;;;;;;;;;20.40;67.80;20.50;99798.00;;;;342773;28;91455;-87
2022/06/14 00:42:06;;;;;;;;;;;20.40;67.80;20.40;99798.00;;;;341951;28;82494;-88
2022/06/14 00:42:19;;;;;;;;;;;20.40;67.70;20.30;99800.00;;;;341451;28;91926;-87
2022/06/14 00:42:31;;;;;;;;;;;20.40;68.00;20.40;99801.00;;;;341489;28;83217;-87
2022/06/14 00:42:43;;;;;;;;;;;20.40;68.10;20.40;99798.00;;;;341380;28;92279;-87
2022/06/14 00:42:55;;;;;;;;;;;20.40;67.90;20.40;99798.00;;;;342328;28;83213;-88
2022/06/14 00:43:14;;;;;;;;;;;20.40;68.00;20.40;99801.00;;;;340075;28;92024;-88
2022/06/14 00:43:26;;;;;;;;;;;20.40;68.10;20.40;99799.00;;;;340373;28;83550;-87
2022/06/14 00:43:38;;;;;;;;;;;20.40;68.10;20.40;99800.00;;;;342869;28;89156;-88
2022/06/14 00:43:50;;;;;;;;;;;20.40;68.10;20.40;99792.00;;;;345965;28;83373;-88
2022/06/14 00:44:03;;;;;;;;;;;20.40;68.20;20.40;99801.00;;;;341351;28;91450;-87
2022/06/14 00:44:18;;;;;;;;;;;20.40;68.30;20.40;99800.00;;;;341817;28;82514;-88
2022/06/14 00:44:30;;;;;;;;;;;20.40;68.20;20.30;99802.00;;;;341252;28;92639;-88
2022/06/14 00:44:42;;;;;;;;;;;20.40;68.20;20.30;99796.00;;;;341632;28;82589;-88
2022/06/14 00:45:11;;;;;;;;;;;20.40;68.20;20.30;99804.00;;;;342808;28;91427;-88
2022/06/14 00:45:26;;;;;;;;;;;20.30;68.40;20.30;99800.00;;;;343839;28;83338;-87
2022/06/14 00:45:37;;;;;;;;;;;20.30;68.20;20.20;99800.00;;;;342670;28;90507;-87
2022/06/14 00:45:49;;;;;;;;;;;20.30;68.30;20.20;99804.00;;;;344588;28;83421;-88
2022/06/14 00:46:13;;;;;;;;;;;20.30;68.20;20.30;99797.00;;;;343767;28;90450;-87
2022/06/14 00:46:37;;;;;;;;;;;20.30;68.50;20.30;99802.00;;;;341686;28;83912;-87
2022/06/14 00:47:05;;;;;;;;;;;20.30;68.70;20.30;99799.00;;;;342624;28;92375;-88
2022/06/14 00:47:19;;;;;;;;;;;20.30;68.30;20.30;99805.00;;;;344316;28;83312;-87
2022/06/14 00:47:51;;;;;;;;;;;20.30;69.10;20.30;99804.00;;;;342750;28;91503;-87
2022/06/14 00:48:14;;;;;;;;;;;20.30;68.50;20.30;99796.00;;;;342947;28;83550;-87
2022/06/14 00:48:28;;;;;;;;;;;20.20;68.60;20.20;99800.00;;;;342055;28;90264;-88
2022/06/14 00:48:40;;;;;;;;;;;20.20;68.50;20.30;99803.00;;;;341697;28;83403;-88
2022/06/14 00:48:59;;;;;;;;;;;20.20;68.50;20.20;99791.00;;;;340103;28;88189;-88
2022/06/14 00:49:19;;;;;;;;;;;20.20;68.90;20.30;99801.00;;;;341932;28;83529;-88
2022/06/14 00:49:56;;;;;;;;;;;20.20;68.60;20.20;99798.00;;;;342742;28;91465;-87
2022/06/14 00:50:24;;;;;;;;;;;20.20;69.10;20.20;99796.00;;;;341470;28;83768;-87
2022/06/14 00:50:39;;;;;;;;;;;20.20;68.70;20.30;99799.00;;;;342804;28;89803;-88
2022/06/14 00:51:18;;;;;;;;;;;20.20;68.60;20.20;99801.00;;;;344491;28;83383;-87
2022/06/14 00:51:32;;;;;;;;;;;20.20;68.60;20.20;99796.00;;;;339986;28;92088;-87
2022/06/14 00:51:53;;;;;;;;;;;20.20;68.70;20.20;99803.00;;;;343269;28;82643;-87
2022/06/14 00:52:16;;;;;;;;;;;20.20;68.70;20.20;99798.00;;;;344144;28;90205;-87
2022/06/14 00:52:58;;;;;;;;;;;20.20;68.90;20.20;99806.00;;;;343986;28;83289;-85
2022/06/14 00:53:40;;;;;;;;;;;20.10;68.80;20.30;99808.00;;;;342904;28;87651;-87
2022/06/14 00:54:10;;;;;;;;;;;20.10;68.90;20.10;99804.00;;;;343220;28;82362;-87
2022/06/14 00:54:27;;;;;;;;;;;20.20;68.90;20.00;99808.00;;;;342381;28;89272;-87
2022/06/14 00:54:39;;;;;;;;;;;20.10;68.80;20.10;99798.00;;;;340592;28;83237;-88
2022/06/14 00:54:56;;;;;;;;;;;20.10;68.90;20.20;99799.00;;;;341369;28;91484;-87
2022/06/14 00:55:41;;;;;;;;;;;20.10;69.00;20.20;99802.00;;;;343218;28;83320;-87
2022/06/14 00:56:04;;;;;;;;;;;20.10;69.00;20.20;99791.00;;;;337380;28;92482;-87
2022/06/14 00:56:20;;;;;;;;;;;20.10;69.00;20.30;99800.00;;;;340496;28;82710;-88
2022/06/14 00:56:56;;;;;;;;;;;20.10;68.90;20.20;99803.00;;;;342820;28;89302;-87
2022/06/14 00:57:13;;;;;;;;;;;20.10;69.10;20.30;99796.00;;;;343206;28;83458;-87
2022/06/14 00:57:27;;;;;;;;;;;20.10;69.00;20.20;99792.00;;;;341642;28;89243;-87
2022/06/14 00:57:46;;;;;;;;;;;20.10;69.20;20.20;99797.00;;;;342129;28;83633;-87
2022/06/14 00:58:04;;;;;;;;;;;20.10;69.20;20.10;99802.00;;;;342620;28;89592;-87
2022/06/14 00:58:18;;;;;;;;;;;20.10;69.10;20.10;99799.00;;;;341907;28;83317;-87
2022/06/14 00:58:36;;;;;;;;;;;20.10;69.10;20.10;99798.00;;;;341883;28;92626;-87
2022/06/14 00:58:49;;;;;;;;;;;20.00;69.30;20.10;99802.00;;;;344458;28;83475;-88
2022/06/14 00:59:04;;;;;;;;;;;20.00;69.30;20.10;99800.00;;;;342807;28;90318;-87
2022/06/14 00:59:28;;;;;;;;;;;20.10;69.10;19.90;99798.00;;;;343201;28;83378;-87
2022/06/14 00:59:55;;;;;;;;;;;20.00;69.00;20.10;99796.00;;;;342734;28;91333;-87
2022/06/14 01:00:12;;;;;;;;;;;20.00;69.30;20.00;99803.00;;;;343235;28;83438;-87
2022/06/14 01:00:27;;;;;;;;;;;20.00;69.10;20.10;99798.00;;;;340061;28;91463;-87
2022/06/14 01:00:42;;;;;;;;;;;20.00;69.30;20.10;99794.00;;;;340754;28;82416;-87
2022/06/14 01:01:22;;;;;;;;;;;20.00;69.30;20.10;99799.00;;;;341337;28;89060;-87
2022/06/14 01:01:36;;;;;;;;;;;20.00;69.60;20.00;99793.00;;;;334886;29;83405;-87
2022/06/14 01:01:48;;;;;;;;;;;20.00;69.30;20.00;99801.00;;;;339597;28;93409;-87
2022/06/14 01:02:11;;;;;;;;;;;19.90;69.30;20.00;99797.00;;;;343173;28;83458;-87
2022/06/14 01:02:26;;;;;;;;;;;20.00;69.40;20.00;99788.00;;;;344119;28;92216;-87
2022/06/14 01:02:44;;;;;;;;;;;19.90;69.70;19.90;99791.00;;;;343063;28;83612;-87
2022/06/14 01:02:57;;;;;;;;;;;19.90;69.60;20.00;99793.00;;;;344156;28;92108;-87
2022/06/14 01:03:20;;;;;;;;;;;19.90;69.60;20.00;99795.00;;;;343213;28;83425;-87
2022/06/14 01:03:40;;;;;;;;;;;19.90;69.50;20.00;99799.00;;;;342217;28;89354;-87
2022/06/14 01:03:57;;;;;;;;;;;19.90;69.50;19.90;99801.00;;;;340454;28;83356;-87
2022/06/14 01:04:14;;;;;;;;;;;19.90;69.60;20.00;99798.00;;;;340064;28;91225;-87
2022/06/14 01:04:28;;;;;;;;;;;19.90;69.70;19.80;99801.00;;;;341828;28;83451;-87
2022/06/14 01:04:39;;;;;;;;;;;19.90;69.70;19.80;99797.00;;;;341252;28;93171;-87
2022/06/14 01:04:51;;;;;;;;;;;19.80;69.70;19.70;99798.00;;;;341871;28;83479;-87
2022/06/14 01:05:05;;;;;;;;;;;19.80;69.80;19.80;99788.00;;;;342778;28;89700;-87
2022/06/14 01:06:05;;;;;;;;;;;19.80;69.80;19.90;99793.00;;;;340090;28;82414;-87
2022/06/14 01:06:08;;;;;;;;;;;19.80;69.70;19.80;99800.00;;;;342755;28;89146;-87
2022/06/14 01:06:43;;;;;;;;;;;19.80;70.00;19.80;99795.00;;;;344554;28;83416;-87
2022/06/14 01:06:55;;;;;;;;;;;19.80;70.50;19.90;99803.00;;;;344083;28;90444;-87
2022/06/14 01:07:35;;;;;;;;;;;19.80;70.10;19.80;99799.00;;;;345958;28;83358;-87
2022/06/14 01:07:48;;;;;;;;;;;19.80;70.00;19.80;99796.00;;;;340107;28;88799;-87
2022/06/14 01:08:00;;;;;;;;;;;19.80;70.40;19.90;99796.00;;;;342715;28;82646;-87
2022/06/14 01:08:11;;;;;;;;;;;19.80;70.30;19.90;99804.00;;;;342587;28;93542;-87
2022/06/14 01:08:23;;;;;;;;;;;19.80;70.20;19.90;99791.00;;;;341488;28;83578;-87
2022/06/14 01:08:41;;;;;;;;;;;19.80;70.50;19.90;99798.00;;;;341439;28;88470;-87
2022/06/14 01:09:19;;;;;;;;;;;19.80;70.30;19.80;99796.00;;;;341769;28;83601;-87
2022/06/14 01:09:36;;;;;;;;;;;19.80;70.30;19.70;99795.00;;;;337241;28;91064;-88
2022/06/14 01:09:49;;;;;;;;;;;19.80;70.40;19.70;99799.00;;;;339111;28;83257;-87
2022/06/14 01:10:05;;;;;;;;;;;19.70;70.40;19.70;99802.00;;;;335933;28;91008;-87
2022/06/14 01:10:19;;;;;;;;;;;19.70;70.50;19.80;99791.00;;;;337880;28;83355;-86
2022/06/14 01:10:32;;;;;;;;;;;19.70;70.40;19.80;99789.00;;;;337313;28;91054;-87
2022/06/14 01:10:47;;;;;;;;;;;19.70;70.40;19.70;99795.00;;;;340320;28;83329;-87
2022/06/14 01:10:58;;;;;;;;;;;19.70;70.40;19.60;99795.00;;;;340037;28;91207;-87
2022/06/14 01:11:14;;;;;;;;;;;19.70;70.60;19.60;99800.00;;;;338963;28;83208;-87
2022/06/14 01:11:33;;;;;;;;;;;19.70;70.70;19.70;99794.00;;;;338686;28;91492;-87
2022/06/14 01:11:50;;;;;;;;;;;19.70;70.70;19.70;99797.00;;;;340364;28;83425;-87
2022/06/14 01:12:08;;;;;;;;;;;19.70;70.70;19.70;99801.00;;;;337366;28;88824;-87
2022/06/14 01:12:22;;;;;;;;;;;19.70;71.40;19.70;99800.00;;;;337944;28;83348;-87
2022/06/14 01:12:35;;;;;;;;;;;19.70;70.80;19.80;99801.00;;;;339197;28;94442;-87
2022/06/14 01:12:48;;;;;;;;;;;19.70;70.80;19.70;99794.00;;;;339032;28;83578;-87
2022/06/14 01:13:01;;;;;;;;;;;19.70;70.80;19.70;99802.00;;;;337335;28;91356;-87
2022/06/14 01:13:13;;;;;;;;;;;19.70;70.70;19.80;99790.00;;;;337908;28;83399;-87
2022/06/14 01:13:25;;;;;;;;;;;19.70;70.90;19.70;99799.00;;;;338505;28;92387;-87
2022/06/14 01:13:36;;;;;;;;;;;19.70;70.90;19.60;99798.00;;;;340508;28;82248;-87
2022/06/14 01:13:48;;;;;;;;;;;19.60;70.80;19.60;99793.00;;;;337447;28;88072;-87